createdAt,value
2022-08-30T00:01:05.330Z,99.90
2022-08-30T00:20:30.358Z,99.90
2022-08-30T00:26:02.607Z,99.90
2022-08-30T00:45:31.567Z,99.90
2022-08-30T00:51:07.497Z,99.90
2022-08-30T00:53:56.784Z,99.90
2022-08-30T00:59:29.423Z,99.90
2022-08-30T01:05:03.564Z,99.90
2022-08-30T01:10:36.319Z,99.90
2022-08-30T01:13:23.609Z,99.90
2022-08-30T01:18:58.153Z,99.90
2022-08-30T01:21:48.815Z,99.90
2022-08-30T01:27:22.893Z,99.90
2022-08-30T01:30:09.798Z,99.90
2022-08-30T01:33:03.671Z,99.90
2022-08-30T01:38:39.583Z,99.90
2022-08-30T01:41:28.789Z,99.90
2022-08-30T01:44:15.318Z,99.90
2022-08-30T02:06:24.483Z,99.90
2022-08-30T02:51:11.640Z,99.90
2022-08-30T03:41:05.969Z,99.90
2022-08-30T04:25:34.877Z,99.90
2022-08-30T04:31:12.151Z,99.90
2022-08-30T04:45:10.155Z,99.90
2022-08-30T04:56:22.229Z,99.90
2022-08-30T05:13:18.924Z,99.90
2022-08-30T05:16:06.478Z,99.90
2022-08-30T05:43:59.227Z,99.90
2022-08-30T06:00:37.515Z,99.90
2022-08-30T06:31:15.631Z,99.90
2022-08-30T06:50:54.006Z,99.90
2022-08-30T07:21:43.726Z,99.90
2022-08-30T07:38:20.069Z,99.90
2022-08-30T07:41:06.395Z,99.90
2022-08-30T08:06:05.138Z,99.90
2022-08-30T08:08:51.092Z,99.90
2022-08-30T08:28:12.904Z,99.90
2022-08-30T08:36:32.439Z,99.90
2022-08-30T08:39:18.536Z,99.90
2022-08-30T08:42:48.647Z,99.90
2022-08-30T08:46:07.897Z,99.90
2022-08-30T08:49:00.557Z,99.90
2022-08-30T08:54:59.349Z,99.90
2022-08-30T08:57:44.900Z,99.90
2022-08-30T09:00:31.932Z,99.90
2022-08-30T09:03:21.394Z,99.90
2022-08-30T09:06:18.816Z,99.90
2022-08-30T09:09:04.950Z,99.90
2022-08-30T09:11:50.515Z,99.90
2022-08-30T09:14:44.247Z,99.90
2022-08-30T09:17:59.371Z,99.90
2022-08-30T09:20:48.965Z,99.90
2022-08-30T09:23:34.595Z,99.90
2022-08-30T09:26:33.831Z,99.90
2022-08-30T09:29:20.100Z,99.90
2022-08-30T09:32:24.710Z,99.90
2022-08-30T09:35:18.024Z,99.90
2022-08-30T09:38:13.326Z,99.90
2022-08-30T09:41:21.038Z,99.90
2022-08-30T09:44:08.450Z,99.90
2022-08-30T09:46:56.935Z,99.90
2022-08-30T09:49:44.374Z,99.90
2022-08-30T09:52:42.565Z,99.90
2022-08-30T09:55:49.176Z,99.90
2022-08-30T09:58:59.387Z,99.90
2022-08-30T10:02:12.766Z,99.90
2022-08-30T10:05:07.973Z,99.90
2022-08-30T10:08:15.472Z,99.90
2022-08-30T10:11:07.459Z,99.90
2022-08-30T10:14:02.767Z,99.90
2022-08-30T10:17:06.158Z,99.90
2022-08-30T10:20:02.362Z,99.90
2022-08-30T10:22:58.681Z,99.90
2022-08-30T10:25:56.570Z,99.90
2022-08-30T10:28:50.408Z,99.90
2022-08-30T10:32:05.469Z,99.90
2022-08-30T10:35:09.907Z,99.90
2022-08-30T10:38:04.891Z,99.90
2022-08-30T10:41:13.682Z,99.90
2022-08-30T10:44:26.607Z,99.90
2022-08-30T10:47:37.727Z,99.90
2022-08-30T10:50:29.675Z,99.90
2022-08-30T10:53:33.880Z,99.90
2022-08-30T10:56:24.334Z,99.90
2022-08-30T10:59:12.147Z,99.90
2022-08-30T11:02:06.416Z,99.90
2022-08-30T11:05:27.478Z,99.90
2022-08-30T11:08:48.807Z,99.90
2022-08-30T11:11:51.587Z,99.90
2022-08-30T11:14:44.897Z,99.90
2022-08-30T11:17:56.045Z,99.90
2022-08-30T11:20:45.953Z,99.90
2022-08-30T11:23:35.882Z,99.90
2022-08-30T11:26:46.869Z,99.90
2022-08-30T11:29:38.452Z,99.90
2022-08-30T11:32:45.802Z,99.90
2022-08-30T11:35:52.337Z,99.90
2022-08-30T11:38:37.730Z,99.90
2022-08-30T11:41:46.198Z,99.90
2022-08-30T11:44:33.881Z,99.90
2022-08-30T11:47:47.192Z,99.90
2022-08-30T11:50:39.386Z,99.90
2022-08-30T11:53:42.798Z,99.90
2022-08-30T11:56:42.606Z,99.90
2022-08-30T11:59:50.058Z,99.90
2022-08-30T12:02:52.678Z,99.90
2022-08-30T12:05:38.539Z,99.90
2022-08-30T12:08:34.053Z,99.90
2022-08-30T12:11:19.763Z,99.90
2022-08-30T12:14:09.411Z,99.90
2022-08-30T12:17:15.028Z,99.90
2022-08-30T12:20:00.621Z,99.90
2022-08-30T12:22:47.282Z,99.90
2022-08-30T12:25:35.055Z,99.90
2022-08-30T12:28:28.549Z,99.90
2022-08-30T12:31:18.141Z,99.90
2022-08-30T12:34:04.534Z,99.90
2022-08-30T12:36:55.856Z,99.90
2022-08-30T12:39:43.374Z,99.90
2022-08-30T12:42:32.518Z,99.90
2022-08-30T12:45:21.593Z,99.90
2022-08-30T12:48:11.067Z,99.90
2022-08-30T12:50:59.154Z,99.90
2022-08-30T12:53:47.028Z,99.90
2022-08-30T12:56:54.171Z,99.90
2022-08-30T12:59:59.447Z,99.90
2022-08-30T13:02:52.158Z,99.90
2022-08-30T13:05:44.559Z,99.90
2022-08-30T13:08:51.619Z,99.90
2022-08-30T13:11:37.469Z,99.90
2022-08-30T13:14:42.405Z,99.90
2022-08-30T13:17:29.316Z,99.90
2022-08-30T13:20:17.681Z,99.90
2022-08-30T13:23:09.216Z,99.90
2022-08-30T13:25:54.966Z,99.90
2022-08-30T13:28:59.330Z,99.90
2022-08-30T13:31:45.425Z,99.90
2022-08-30T13:34:33.041Z,99.90
2022-08-30T13:40:28.479Z,99.90
2022-08-30T13:43:14.123Z,99.90
2022-08-30T13:46:00.855Z,99.90
2022-08-30T13:48:46.739Z,99.90
2022-08-30T13:51:33.031Z,99.90
2022-08-30T13:54:24.486Z,99.90
2022-08-30T13:57:10.215Z,99.90
2022-08-30T13:59:56.457Z,99.90
2022-08-30T14:02:46.367Z,99.90
2022-08-30T14:08:48.567Z,99.90
2022-08-30T14:11:37.377Z,99.90
2022-08-30T14:14:41.960Z,99.90
2022-08-30T14:17:30.906Z,99.90
2022-08-30T14:20:16.855Z,99.90
2022-08-30T14:23:03.983Z,99.90
2022-08-30T14:25:55.081Z,99.90
2022-08-30T14:28:42.032Z,99.90
2022-08-30T14:31:32.480Z,99.90
2022-08-30T14:34:19.335Z,99.90
2022-08-30T14:37:06.740Z,99.90
2022-08-30T14:39:52.840Z,99.90
2022-08-30T14:42:38.477Z,99.90
2022-08-30T14:45:24.363Z,99.90
2022-08-30T14:48:11.757Z,99.90
2022-08-30T14:51:00.099Z,99.90
2022-08-30T14:53:46.935Z,99.90
2022-08-30T14:56:32.366Z,99.90
2022-08-30T14:59:18.596Z,99.90
2022-08-30T15:02:04.093Z,99.90
2022-08-30T15:04:49.765Z,99.50
2022-08-30T15:07:35.128Z,99.00
2022-08-30T15:10:21.534Z,99.50
2022-08-30T15:13:07.095Z,98.70
2022-08-30T15:15:52.596Z,97.70
2022-08-30T15:18:38.637Z,97.60
2022-08-30T15:21:28.179Z,96.60
2022-08-30T15:24:18.161Z,95.90
2022-08-30T15:27:04.874Z,97.20
2022-08-30T15:29:51.533Z,99.40
2022-08-30T15:32:37.024Z,99.90
2022-08-30T15:35:22.832Z,99.90
2022-08-30T15:38:08.724Z,99.00
2022-08-30T15:41:02.128Z,97.00
2022-08-30T15:43:49.347Z,95.50
2022-08-30T15:46:37.937Z,95.70
2022-08-30T15:49:24.051Z,96.40
2022-08-30T15:52:09.657Z,97.60
2022-08-30T15:54:55.497Z,98.80
2022-08-30T15:57:41.358Z,99.00
2022-08-30T16:00:26.861Z,97.90
2022-08-30T16:03:12.337Z,97.90
2022-08-30T16:05:57.747Z,97.30
2022-08-30T16:08:44.102Z,97.50
2022-08-30T16:11:31.855Z,99.30
2022-08-30T16:14:17.546Z,99.90
2022-08-30T16:17:04.067Z,99.90
2022-08-30T16:19:50.779Z,98.60
2022-08-30T16:22:36.227Z,96.20
2022-08-30T16:25:21.844Z,95.90
2022-08-30T16:28:09.389Z,94.80
2022-08-30T16:30:54.916Z,94.70
2022-08-30T16:33:43.810Z,95.80
2022-08-30T16:36:32.130Z,96.80
2022-08-30T16:53:11.594Z,98.80
2022-08-30T17:01:34.935Z,98.90
2022-08-30T17:18:19.023Z,99.90
2022-08-30T17:37:48.057Z,99.90
2022-08-30T17:43:25.670Z,99.90
2022-08-30T17:46:18.281Z,99.90
2022-08-30T17:49:04.080Z,99.90
2022-08-30T17:51:54.239Z,99.90
2022-08-30T18:14:08.305Z,99.90
2022-08-30T18:28:05.806Z,99.90
2022-08-30T18:30:55.951Z,99.90
2022-08-30T18:42:05.020Z,99.90
2022-08-30T19:07:18.217Z,99.90
2022-08-30T19:10:05.411Z,99.90
2022-08-30T19:35:05.323Z,99.90
2022-08-30T20:00:09.064Z,99.90
2022-08-30T20:28:04.805Z,99.90
2022-08-30T20:50:16.039Z,99.90
2022-08-30T21:12:26.409Z,99.90
2022-08-30T21:21:15.307Z,99.90
2022-08-30T21:24:06.613Z,99.90
2022-08-30T21:43:49.313Z,99.90
2022-08-30T21:46:35.984Z,99.90
2022-08-30T21:49:23.434Z,99.90
2022-08-30T22:08:46.158Z,99.90
2022-08-30T22:14:18.196Z,99.90
2022-08-30T22:36:32.372Z,99.90
2022-08-30T22:50:24.290Z,99.90
2022-08-30T23:01:37.742Z,99.90
2022-08-30T23:21:07.542Z,99.90
2022-08-30T23:24:16.061Z,99.90
2022-08-30T23:30:25.749Z,99.90
